Ana Sayfa
METAR-TAF:

METAR-TAF

Havaalanları :

Ashtabula County Airport

Ashtabula, Ohio, Amerika Birleşik Devletleri

Enlem: 41-46-46N, Boylam: 080-41-48W, yükseklik: 281 m

Güncel hava durumu gözlemi

Rapor saat 15:53 UTC de 55 dakika önce yapıldı.
Rüzgar kuzey/kuzeybatıdan 7 kt
Sıcaklık 9°C
Nem 53%
Basınç 1019 hPa
Görüş mesafesi: 16.1 km
Açık gökyüzü

METAR: KHZY 021553Z AUTO 33007KT 10SM CLR 09/00 A3008 RMK AO2 SLP192 T00890000

Saat: 12:48 (16:48 UTC)


TAF: eksik

4.000'den fazla havaalanı için hava durumu gözlemleri ve tahminleri (METAR ve TAF raporları).

Kullanılabilir istasyonlar harita üzerinde sarı ve kırmızı noktalarla gösterilir.

İstasyonun adını görmek için fareyi noktanın üzerinde gezdirin.

Sonrasında hava gözlem ve tahminlerini görmek için tıklayın.

Haritayı değiştirmek için: yaklaştırmak için siyah artı işaretli yeşil düğmeye ve uzaklaştırmak için de eksi işaretli düğmeye hızla tıklayın; bitişik haritalar için yeşil okları kullanın.


METAR-TAF: